Seattle, WA

7:43 AM PDT on October 22, 2014 (GMT -0700)
Seattle-Tacoma International | Change Station
CLOSE
Current Station
Airport
Location: Seattle,
Elevation: 433 ft
Nearby Weather Stations

Elev 433 ft 47.44 °N, 122.31 °W | Updated 43 minutes ago

Rain
Rain
55 °F
Feels Like 55 °F
N
12
Wind Variable Wind from South

Today
High -- | Low -- °F
--% Chance of Precip.
Yesterday
High -- | Low -- °F
Precip. -- in
7:38 AM 6:08 PM
Waning Crescent, 2% visible
Pressure 29.70 in
Visibility 9.0 miles
Clouds Scattered Clouds 2900 ft
Overcast 3900 ft
Dew Point 54 °F
Humidity 94%
Rainfall 0.34 in
Snow Depth Not available.
UV 0 out of 12
Pollen .40 out of 12
Air Quality Not available.
Flu Activity Sporadic
SPECI KSEA 221400Z 17010KT 9SM -RA SCT029 OVC039 13/12 A2970 RMK AO2 P0000

More Conditions Fewer Conditions

Pressure 29.70 in
Visibility 9.0 miles
Clouds Scattered Clouds 2900 ft
Overcast 3900 ft
Dew Point 54 °F
Humidity 94%
Rainfall 0.34 in
Snow Depth Not available.
UV 0 out of 12
Pollen .40 out of 12
Air Quality Not available.
Flu Activity Sporadic
SPECI KSEA 221400Z 17010KT 9SM -RA SCT029 OVC039 13/12 A2970 RMK AO2 P0000

More Conditions Fewer Conditions

10-Day Weather Forecast

Almanac

Astronomy

Oct. 22, 2014 Rise Set
Actual Time 7:38 AM PDT 6:08 PM PDT
Civil Twilight 7:07 AM PDT 6:39 PM PDT
Nautical Twilight 6:31 AM PDT 7:15 PM PDT
Astronomical Twilight 5:55 AM PDT 7:51 PM PDT
Moon 6:20 AM PDT 5:41 PM PDT
Length of Visible Light 11h 32m
Length of Day
10h 29m
Tomorrow will be 3m 15s shorter.
Waning Crescent, 2% of the Moon is Illuminated
Today
Waning Crescent
Oct 23
New
Oct 30
First Quarter
Nov 6
Full
Nov 14
Last Quarter

Today's Extremes

State Highs State Lows

Community

WunderPhotos

Upload Photos

1,763,935 photos uploaded!

WunderBlogs® & News

Nearby

Air Quality

  Air Quality AQ Index Pollutant
Wednesday Good
PM2.5
Thursday Good
PM2.5
Friday Good
PM2.5
Saturday Good
PM2.5

Snow Depth

Station Depth Elevation
Alpine Meadows 0 in 3500 ft
Skookum Creek 0 in 3920 ft
Dungeness 0 in 4100 ft
Mount Gardner 0 in 3000 ft
Olallie Meadows 0 in 3700 ft

Earthquake Activity

City Distance Mag. Time & Date
No recent earthquake activity has been reported nearby.
Minimum magnitude displayed is 2.5.

Coastal Water Temperatures

Place Temperature
Port Townsend, WA 53.1 °F
Seattle, WA 55.0 °F
Friday Harbor, WA 51.1 °F
Tacoma, WA 55.0 °F

Nearby Weather Stations